Time;durP1;ratioP1;P1;durP2;ratioP2;P2;SDS_P1;SDS_P2;PMS_P1;PMS_P2;Temp;Humidity;BMP_temperature;BMP_pressure;BME280_temperature;BME280_humidity;BME280_pressure;Samples;Min_cycle;Max_cycle;Signal;HPM_P1;HPM_P2
2022/10/30 00:00:37;;;;;;;;;12.33;12.33;;;;;19.39;56.49;100886.94;5075460;28;45490;-61
2022/10/30 00:03:02;;;;;;;;;12.33;11.33;;;;;19.37;56.48;100891.53;5075370;28;45412;-63
2022/10/30 00:05:27;;;;;;;;;13.33;13.33;;;;;19.36;55.87;100889.81;5075180;28;46095;-59
2022/10/30 00:07:57;;;;;;;;;12.00;12.00;;;;;19.34;56.58;100890.88;5075460;28;45482;-61
2022/10/30 00:10:23;;;;;;;;;13.67;12.00;;;;;19.32;56.32;100900.81;5075601;28;45528;-61
2022/10/30 00:12:48;;;;;;;;;11.67;11.67;;;;;19.30;56.57;100898.22;5075005;28;45520;-63
2022/10/30 00:15:13;;;;;;;;;11.33;10.33;;;;;19.28;57.05;100899.28;5074751;28;59698;-64
2022/10/30 00:17:39;;;;;;;;;13.00;12.67;;;;;19.24;56.64;100887.97;5074918;28;45467;-63
2022/10/30 00:20:06;;;;;;;;;15.00;14.00;;;;;19.24;56.09;100890.66;5075949;28;45489;-63
2022/10/30 00:22:31;;;;;;;;;11.00;11.00;;;;;19.24;56.80;100887.97;5057075;28;45426;-63
2022/10/30 00:24:56;;;;;;;;;14.33;13.33;;;;;19.23;56.77;100888.91;5075125;28;45363;-64
2022/10/30 00:27:22;;;;;;;;;15.00;13.67;;;;;19.22;56.63;100897.88;5075269;28;45475;-65
2022/10/30 00:29:47;;;;;;;;;12.67;12.67;;;;;19.22;56.27;100887.22;5075115;28;45499;-65
2022/10/30 00:32:12;;;;;;;;;13.33;12.67;;;;;19.22;56.79;100881.88;5075240;28;45482;-64
2022/10/30 00:34:38;;;;;;;;;15.00;14.33;;;;;19.22;56.87;100883.69;5074725;28;46329;-62
2022/10/30 00:37:03;;;;;;;;;16.00;15.33;;;;;19.24;56.75;100881.78;5074947;28;45327;-65
2022/10/30 00:39:28;;;;;;;;;14.33;14.33;;;;;19.24;56.48;100895.97;5074931;28;45526;-65
2022/10/30 00:41:54;;;;;;;;;16.67;15.33;;;;;19.19;56.26;100882.09;5075144;28;45590;-64
2022/10/30 00:44:43;;;;;;;;;14.33;14.00;;;;;19.20;56.56;100881.13;5074650;28;48133;-63
2022/10/30 00:47:24;;;;;;;;;16.33;15.00;;;;;19.18;56.77;100878.59;5036424;28;45551;-63
2022/10/30 00:50:01;;;;;;;;;16.33;14.33;;;;;19.14;56.66;100890.41;5066774;28;45383;-62
2022/10/30 00:52:32;;;;;;;;;11.33;11.33;;;;;19.12;57.06;100897.63;5074779;28;45618;-63
2022/10/30 00:55:02;;;;;;;;;12.67;12.67;;;;;19.10;56.71;100899.56;5074783;28;45418;-64
2022/10/30 00:57:27;;;;;;;;;12.67;11.33;;;;;19.10;56.61;100891.56;5074648;28;45474;-64
2022/10/30 00:59:52;;;;;;;;;11.33;8.00;;;;;19.06;57.10;100900.72;5076498;28;45436;-64
2022/10/30 01:02:20;;;;;;;;;14.00;11.00;;;;;19.04;56.52;100915.09;5078361;28;45620;-64
2022/10/30 01:04:47;;;;;;;;;15.00;12.00;;;;;19.02;56.84;100906.34;5078045;28;46195;-62
2022/10/30 01:07:16;;;;;;;;;10.67;10.67;;;;;18.97;57.30;100904.84;5078016;28;45511;-62
2022/10/30 01:09:42;;;;;;;;;11.67;9.67;;;;;18.92;57.03;100903.44;5078259;28;45328;-65
2022/10/30 01:12:08;;;;;;;;;10.00;10.00;;;;;18.84;57.34;100903.94;5078066;28;45381;-65
2022/10/30 01:14:37;;;;;;;;;11.33;11.33;;;;;18.80;57.22;100904.22;5077890;28;46043;-63
2022/10/30 01:17:25;;;;;;;;;13.67;12.00;;;;;18.75;57.15;100907.19;5078045;28;45406;-61
2022/10/30 01:20:11;;;;;;;;;16.33;13.00;;;;;18.67;57.89;100905.00;5065174;28;45465;-65
2022/10/30 01:22:56;;;;;;;;;14.00;14.00;;;;;18.64;57.54;100905.19;5077883;28;45459;-65
2022/10/30 01:25:46;;;;;;;;;12.00;11.33;;;;;18.64;57.68;100912.31;5059641;28;47135;-63
2022/10/30 01:28:23;;;;;;;;;12.00;11.33;;;;;18.62;57.96;100911.56;5077621;28;45529;-64
2022/10/30 01:31:03;;;;;;;;;16.00;14.33;;;;;18.58;58.09;100913.56;5078035;28;45423;-65
2022/10/30 01:33:39;;;;;;;;;12.00;11.00;;;;;18.55;58.21;100914.63;5065035;28;45560;-63
2022/10/30 01:36:17;;;;;;;;;11.00;11.00;;;;;18.54;58.30;100925.38;5077529;28;45832;-62
2022/10/30 01:38:57;;;;;;;;;13.00;12.67;;;;;18.50;58.31;100915.88;5077860;28;45511;-61
2022/10/30 01:41:22;;;;;;;;;14.00;12.33;;;;;18.46;58.63;100923.22;5077565;28;45552;-61
2022/10/30 01:43:51;;;;;;;;;12.33;11.33;;;;;18.41;58.46;100914.66;5077775;28;45346;-62
2022/10/30 01:46:26;;;;;;;;;14.33;14.33;;;;;18.38;58.92;100906.84;5066502;28;46093;-63
2022/10/30 01:48:57;;;;;;;;;14.00;12.67;;;;;18.35;59.17;100903.50;5075270;28;45390;-64
2022/10/30 01:51:34;;;;;;;;;12.33;12.33;;;;;18.32;59.14;100909.88;5077479;28;45451;-62
2022/10/30 01:54:05;;;;;;;;;12.00;12.00;;;;;18.32;59.05;100908.09;5077491;28;45426;-65
2022/10/30 01:56:48;;;;;;;;;16.33;14.33;;;;;18.29;58.90;100902.09;5077462;28;45401;-64
2022/10/30 01:59:45;;;;;;;;;14.00;12.00;;;;;18.31;59.07;100902.84;5077247;28;45374;-62
2022/10/30 02:02:12;;;;;;;;;14.00;11.00;;;;;18.31;59.13;100893.06;5062637;28;45411;-63
2022/10/30 02:04:38;;;;;;;;;11.67;11.67;;;;;18.32;58.79;100881.47;5077282;28;45501;-64
2022/10/30 02:07:03;;;;;;;;;12.00;11.00;;;;;18.33;58.76;100869.84;5058722;28;46858;-63
2022/10/30 02:09:29;;;;;;;;;10.67;10.67;;;;;18.36;58.84;100881.28;5058838;28;45425;-64
2022/10/30 02:11:55;;;;;;;;;11.33;10.67;;;;;18.36;58.88;100878.63;5076352;28;45418;-62
2022/10/30 02:14:25;;;;;;;;;9.33;9.33;;;;;18.33;58.80;100882.31;5077041;28;45528;-63
2022/10/30 02:16:53;;;;;;;;;12.33;11.67;;;;;18.33;59.29;100877.84;5076789;28;46293;-65
2022/10/30 02:19:19;;;;;;;;;13.67;13.33;;;;;18.33;59.25;100875.19;5077513;28;45454;-63
2022/10/30 02:21:44;;;;;;;;;16.67;11.33;;;;;18.33;58.97;100877.00;5077085;28;45460;-63
2022/10/30 02:24:09;;;;;;;;;11.33;11.33;;;;;18.31;59.25;100876.22;5057882;28;45459;-65
2022/10/30 02:26:35;;;;;;;;;14.33;11.33;;;;;18.32;59.25;100872.59;5076775;28;45458;-61
2022/10/30 02:29:00;;;;;;;;;12.00;11.33;;;;;18.30;58.96;100874.53;5077116;28;45505;-61
2022/10/30 02:31:26;;;;;;;;;11.67;11.67;;;;;18.28;59.14;100879.09;5076856;28;45470;-63
2022/10/30 02:33:51;;;;;;;;;13.00;11.00;;;;;18.23;59.01;100870.53;5076872;28;45656;-63
2022/10/30 02:36:16;;;;;;;;;13.33;11.33;;;;;18.25;59.32;100879.28;5076687;28;46012;-62
2022/10/30 02:38:43;;;;;;;;;10.33;8.00;;;;;18.25;59.52;100874.81;5068470;28;45409;-62
2022/10/30 02:41:09;;;;;;;;;18.67;15.00;;;;;18.24;59.39;100867.78;5070954;28;45413;-62
2022/10/30 02:43:34;;;;;;;;;15.00;13.67;;;;;18.26;58.93;100870.34;5076565;28;45644;-65
2022/10/30 02:45:59;;;;;;;;;14.00;13.67;;;;;18.25;59.29;100869.50;5076636;28;45402;-64
2022/10/30 02:48:25;;;;;;;;;12.33;11.33;;;;;18.25;59.27;100880.13;5076562;28;45519;-64
2022/10/30 02:50:50;;;;;;;;;12.67;10.67;;;;;18.24;59.24;100873.13;5076735;28;45384;-61
2022/10/30 02:53:16;;;;;;;;;12.33;10.67;;;;;18.21;59.12;100873.28;5076307;28;50949;-62
2022/10/30 02:55:41;;;;;;;;;15.33;14.33;;;;;18.16;59.53;100862.09;5076264;28;45899;-60
2022/10/30 02:58:07;;;;;;;;;10.67;10.33;;;;;18.14;59.37;100856.00;5076367;28;45389;-62
2022/10/30 03:00:32;;;;;;;;;12.33;11.33;;;;;18.13;59.61;100862.25;5076247;28;45458;-62
2022/10/30 03:02:57;;;;;;;;;12.33;12.33;;;;;18.10;59.57;100857.97;5076249;28;45454;-62
2022/10/30 03:05:23;;;;;;;;;12.00;12.00;;;;;18.10;59.49;100854.47;5076124;28;45386;-62
2022/10/30 03:07:50;;;;;;;;;13.00;13.00;;;;;18.09;59.68;100855.44;5076135;28;45565;-63
2022/10/30 03:10:16;;;;;;;;;12.00;12.00;;;;;18.08;59.40;100857.25;5076271;28;45433;-64
2022/10/30 03:12:41;;;;;;;;;12.33;10.00;;;;;18.09;59.63;100858.09;5076033;28;45507;-63
2022/10/30 03:15:07;;;;;;;;;10.33;8.00;;;;;18.07;59.72;100862.66;5076154;28;46292;-63
2022/10/30 03:17:32;;;;;;;;;11.33;11.33;;;;;18.07;59.48;100860.00;5050819;28;45395;-64
2022/10/30 03:19:57;;;;;;;;;16.00;11.67;;;;;18.08;59.73;100859.03;5057833;28;45354;-60
2022/10/30 03:22:23;;;;;;;;;12.67;12.67;;;;;18.13;59.85;100848.94;5058945;28;45467;-64
2022/10/30 03:24:48;;;;;;;;;11.33;11.33;;;;;18.13;59.74;100850.75;5065924;28;53199;-61
2022/10/30 03:27:13;;;;;;;;;16.00;14.67;;;;;18.14;59.69;100852.50;5065461;28;59580;-62
2022/10/30 03:29:39;;;;;;;;;12.33;11.00;;;;;18.15;59.71;100847.06;5071577;28;45387;-64
2022/10/30 03:32:08;;;;;;;;;14.00;11.67;;;;;18.14;59.55;100842.69;5076131;28;45324;-63
2022/10/30 03:34:33;;;;;;;;;10.67;9.67;;;;;18.15;59.81;100843.53;5075793;28;45500;-65
2022/10/30 03:36:59;;;;;;;;;15.00;11.33;;;;;18.16;59.76;100843.47;5061407;28;45485;-64
2022/10/30 03:39:24;;;;;;;;;13.00;11.33;;;;;18.16;59.72;100838.13;5075734;28;45503;-65
2022/10/30 03:41:49;;;;;;;;;11.00;11.00;;;;;18.18;59.50;100835.34;5075516;28;45446;-64
2022/10/30 03:44:14;;;;;;;;;13.33;13.33;;;;;18.16;59.50;100830.16;5075210;28;54591;-62
2022/10/30 03:46:40;;;;;;;;;12.67;12.33;;;;;18.13;59.95;100822.34;5075261;28;45506;-61
2022/10/30 03:49:05;;;;;;;;;13.00;13.00;;;;;18.06;60.06;100827.19;5057478;28;45462;-62
2022/10/30 03:51:30;;;;;;;;;14.00;14.00;;;;;18.05;60.17;100830.84;5075499;28;45482;-62
2022/10/30 03:53:56;;;;;;;;;22.00;15.50;;;;;18.02;60.25;100835.47;5060787;28;45550;-65
2022/10/30 03:56:21;;;;;;;;;16.67;13.67;;;;;18.01;60.89;100834.63;5075545;28;45429;-60
2022/10/30 03:58:46;;;;;;;;;18.00;14.33;;;;;18.05;60.20;100841.47;5075232;28;45394;-64
2022/10/30 04:01:12;;;;;;;;;18.67;15.33;;;;;18.02;60.59;100838.97;5075322;28;45564;-64
2022/10/30 04:03:37;;;;;;;;;14.67;14.67;;;;;18.00;60.78;100824.06;5075163;28;45582;-62
2022/10/30 04:06:03;;;;;;;;;20.00;17.33;;;;;17.98;60.81;100828.66;5075089;28;45462;-65
2022/10/30 04:08:28;;;;;;;;;13.00;13.00;;;;;17.95;61.00;100828.84;5075295;28;45434;-64
2022/10/30 04:10:53;;;;;;;;;16.00;14.67;;;;;17.96;61.08;100819.91;5075281;28;45318;-63
2022/10/30 04:13:19;;;;;;;;;20.67;16.33;;;;;17.99;60.93;100830.34;5074978;28;45387;-61
2022/10/30 04:15:47;;;;;;;;;16.67;15.67;;;;;18.00;60.93;100824.06;5075008;28;45376;-61
2022/10/30 04:18:13;;;;;;;;;19.33;15.67;;;;;18.02;60.95;100836.31;5075498;28;45411;-60
2022/10/30 04:20:39;;;;;;;;;15.00;15.00;;;;;18.01;60.90;100833.78;5075587;28;45601;-63
2022/10/30 04:23:06;;;;;;;;;18.67;18.00;;;;;17.94;61.25;100829.78;5074913;28;53072;-63
2022/10/30 04:25:33;;;;;;;;;20.67;17.00;;;;;17.88;61.12;100821.22;5075268;28;45556;-63
2022/10/30 04:27:58;;;;;;;;;16.67;15.33;;;;;17.83;61.30;100825.97;5060624;28;45531;-63
2022/10/30 04:30:26;;;;;;;;;12.67;12.67;;;;;17.74;61.19;100807.91;5075333;28;46161;-62
2022/10/30 04:32:53;;;;;;;;;15.67;14.67;;;;;17.71;61.44;100802.78;5075096;28;46107;-64
2022/10/30 04:35:21;;;;;;;;;5.00;4.00;;;;;17.70;61.60;100806.34;5077479;28;45517;-63
2022/10/30 04:38:01;;;;;;;;;17.67;16.33;;;;;17.63;61.95;100808.56;5078615;28;45539;-61
2022/10/30 04:40:30;;;;;;;;;16.33;16.00;;;;;17.60;61.98;100808.75;5078490;28;45389;-64
2022/10/30 04:42:56;;;;;;;;;14.67;12.67;;;;;17.59;61.94;100806.16;5078360;28;45539;-62
2022/10/30 04:45:21;;;;;;;;;15.00;13.33;;;;;17.55;62.20;100810.84;5078523;28;45493;-63
2022/10/30 04:47:47;;;;;;;;;14.00;14.00;;;;;17.57;62.13;100810.72;5078508;28;45519;-64
2022/10/30 04:50:13;;;;;;;;;18.33;14.67;;;;;17.55;62.24;100802.84;5078395;28;45525;-62
2022/10/30 04:52:39;;;;;;;;;15.50;15.50;;;;;17.55;61.90;100805.50;5078386;28;46268;-65
2022/10/30 04:55:05;;;;;;;;;14.33;13.33;;;;;17.53;62.26;100811.88;5059702;28;45436;-62
2022/10/30 04:57:31;;;;;;;;;16.00;16.00;;;;;17.54;62.28;100811.75;5078567;28;45378;-64
2022/10/30 04:59:57;;;;;;;;;17.67;15.67;;;;;17.53;62.38;100809.22;5078272;28;45553;-62
2022/10/30 05:02:22;;;;;;;;;16.33;15.67;;;;;17.52;62.12;100808.38;5078285;28;46304;-63
2022/10/30 05:04:48;;;;;;;;;15.33;15.33;;;;;17.57;62.05;100814.25;5078058;28;45467;-64
2022/10/30 05:07:14;;;;;;;;;13.33;12.33;;;;;17.54;62.29;100805.59;5078029;28;45356;-62
2022/10/30 05:09:39;;;;;;;;;18.00;14.33;;;;;17.52;61.94;100812.84;5078339;28;45605;-65
2022/10/30 05:12:05;;;;;;;;;15.00;14.33;;;;;17.50;61.97;100812.91;5077501;28;46014;-63
2022/10/30 05:14:32;;;;;;;;;15.67;13.33;;;;;17.53;61.96;100806.56;5078083;28;45581;-64
2022/10/30 05:16:58;;;;;;;;;14.33;13.33;;;;;17.48;62.23;100801.50;5078028;28;45446;-63
2022/10/30 05:19:24;;;;;;;;;15.00;14.33;;;;;17.45;62.37;100802.56;5078281;28;45621;-64
2022/10/30 05:21:50;;;;;;;;;19.67;16.00;;;;;17.44;62.29;100803.50;5078272;28;45516;-62
2022/10/30 05:24:15;;;;;;;;;14.33;14.33;;;;;17.44;62.15;100806.16;5077843;28;45422;-63
2022/10/30 05:26:41;;;;;;;;;12.67;12.67;;;;;17.47;62.36;100797.16;5070463;28;45410;-62
2022/10/30 05:29:06;;;;;;;;;14.33;13.00;;;;;17.45;62.09;100797.22;5071091;28;45594;-61
2022/10/30 05:31:31;;;;;;;;;14.67;14.33;;;;;17.41;62.38;100790.41;5077685;28;45426;-64
2022/10/30 05:33:57;;;;;;;;;13.00;12.33;;;;;17.38;62.43;100781.75;5077832;28;45387;-65
2022/10/30 05:36:22;;;;;;;;;14.00;13.00;;;;;17.36;62.71;100783.66;5077608;28;45938;-62
2022/10/30 05:38:47;;;;;;;;;13.33;11.67;;;;;17.39;62.51;100788.78;5077868;28;45360;-64
2022/10/30 05:41:13;;;;;;;;;14.00;13.33;;;;;17.38;62.46;100790.59;5077282;28;45488;-64
2022/10/30 05:43:38;;;;;;;;;14.00;13.33;;;;;17.34;62.47;100794.38;5077806;28;45449;-63
2022/10/30 05:46:04;;;;;;;;;13.33;13.33;;;;;17.31;62.61;100802.53;5076683;28;45561;-64
2022/10/30 05:48:29;;;;;;;;;16.00;14.33;;;;;17.30;62.72;100808.81;5077511;28;45440;-63
2022/10/30 05:50:55;;;;;;;;;13.33;10.00;;;;;17.27;62.68;100803.66;5077647;28;46029;-65
2022/10/30 05:53:21;;;;;;;;;16.67;13.67;;;;;17.26;62.85;100798.44;5077420;28;45428;-64
2022/10/30 05:55:46;;;;;;;;;13.33;13.00;;;;;17.23;62.60;100794.16;5077547;28;45505;-65
2022/10/30 05:58:11;;;;;;;;;14.33;13.67;;;;;17.21;62.93;100786.28;5077442;28;45442;-62
2022/10/30 06:00:39;;;;;;;;;13.00;12.00;;;;;17.22;63.07;100784.47;5077036;28;46237;-65
2022/10/30 06:03:07;;;;;;;;;11.67;11.00;;;;;17.18;62.91;100780.31;5058277;28;45450;-63
2022/10/30 06:05:34;;;;;;;;;14.67;14.00;;;;;17.18;62.42;100790.94;5077180;28;45425;-64
2022/10/30 06:08:00;;;;;;;;;15.33;13.67;;;;;17.17;62.71;100794.53;5077194;28;45363;-62
2022/10/30 06:10:26;;;;;;;;;15.00;12.67;;;;;17.17;62.94;100791.88;5076973;28;46219;-65
2022/10/30 06:12:53;;;;;;;;;15.00;13.00;;;;;17.19;62.77;100792.63;5077041;28;45489;-62
2022/10/30 06:15:18;;;;;;;;;13.00;13.00;;;;;17.23;62.67;100794.16;5077108;28;45367;-63
2022/10/30 06:17:44;;;;;;;;;14.33;12.67;;;;;17.25;63.03;100791.41;5077177;28;45620;-62
2022/10/30 06:20:09;;;;;;;;;16.67;15.33;;;;;17.24;62.75;100795.88;5077543;28;46233;-65
2022/10/30 06:22:35;;;;;;;;;15.33;15.33;;;;;17.23;62.46;100792.38;5076901;28;45458;-64
2022/10/30 06:25:00;;;;;;;;;14.67;13.33;;;;;17.25;62.89;100797.59;5076967;28;48258;-65
2022/10/30 06:27:25;;;;;;;;;13.33;13.33;;;;;17.22;62.64;100793.31;5063251;28;45672;-64
2022/10/30 06:29:53;;;;;;;;;13.00;12.33;;;;;17.21;62.82;100794.25;5058019;28;47093;-63
2022/10/30 06:32:19;;;;;;;;;15.00;13.33;;;;;17.23;62.60;100799.47;5076863;28;45750;-62
2022/10/30 06:34:44;;;;;;;;;13.33;12.33;;;;;17.25;63.05;100791.41;5076742;28;45439;-63
2022/10/30 06:37:10;;;;;;;;;11.67;11.67;;;;;17.24;62.66;100795.88;5076754;28;49997;-64
2022/10/30 06:39:35;;;;;;;;;12.67;11.00;;;;;17.20;62.50;100812.97;5076474;28;45406;-61
2022/10/30 06:42:00;;;;;;;;;13.33;11.67;;;;;17.18;63.21;100805.06;5057630;28;45494;-65
2022/10/30 06:44:26;;;;;;;;;16.33;13.67;;;;;17.15;62.81;100805.25;5076496;28;47564;-63
2022/10/30 06:46:52;;;;;;;;;10.67;8.67;;;;;17.16;63.23;100814.09;5076629;28;45454;-63
2022/10/30 06:49:17;;;;;;;;;13.67;13.67;;;;;17.20;62.91;100813.81;5076667;28;46232;-64
2022/10/30 06:51:43;;;;;;;;;17.33;15.33;;;;;17.21;62.84;100819.97;5076488;28;45441;-64
2022/10/30 06:54:08;;;;;;;;;14.33;13.33;;;;;17.20;63.04;100819.13;5058550;28;45466;-62
2022/10/30 06:56:33;;;;;;;;;13.33;13.33;;;;;17.21;62.96;100817.31;5076436;28;45437;-61
2022/10/30 06:58:58;;;;;;;;;14.00;12.67;;;;;17.19;63.07;100811.22;5075980;28;51968;-62
2022/10/30 07:01:24;;;;;;;;;15.33;14.00;;;;;17.19;63.07;100817.44;5074642;28;63603;-63
2022/10/30 07:03:49;;;;;;;;;14.67;14.33;;;;;17.19;62.71;100816.56;5076365;28;45501;-65
2022/10/30 07:06:14;;;;;;;;;15.33;14.67;;;;;17.16;63.37;100816.75;5076258;28;45319;-64
2022/10/30 07:08:40;;;;;;;;;15.33;15.00;;;;;17.16;62.98;100808.75;5076089;28;46057;-63
2022/10/30 07:11:05;;;;;;;;;18.33;15.67;;;;;17.13;62.99;100806.28;5076151;28;45497;-63
2022/10/30 07:13:30;;;;;;;;;16.00;13.67;;;;;17.08;63.12;100805.72;5075844;28;45433;-66
2022/10/30 07:15:57;;;;;;;;;14.00;14.00;;;;;17.06;63.49;100813.78;5076297;28;45357;-61
2022/10/30 07:18:23;;;;;;;;;14.00;14.00;;;;;17.06;63.73;100808.47;5076089;28;45379;-62
2022/10/30 07:20:54;;;;;;;;;16.67;15.00;;;;;17.05;63.12;100804.09;5076511;28;45364;-63
2022/10/30 07:23:19;;;;;;;;;15.33;15.33;;;;;17.06;63.37;100803.16;5076279;28;45437;-61
2022/10/30 07:25:44;;;;;;;;;17.00;17.00;;;;;17.05;63.66;100798.78;5075799;28;45391;-62
2022/10/30 07:28:10;;;;;;;;;17.00;15.33;;;;;17.06;63.31;100796.97;5060097;28;58359;-62
2022/10/30 07:30:35;;;;;;;;;15.00;15.00;;;;;17.05;63.53;100796.13;5075050;28;45392;-64
2022/10/30 07:33:05;;;;;;;;;16.33;14.33;;;;;17.03;63.67;100800.66;5075528;28;56265;-61
2022/10/30 07:35:33;;;;;;;;;15.67;15.00;;;;;17.04;63.18;100809.50;5076040;28;45560;-61
2022/10/30 07:38:08;;;;;;;;;11.67;11.67;;;;;17.05;63.64;100820.03;5075694;28;45574;-62
2022/10/30 07:40:34;;;;;;;;;13.00;13.00;;;;;17.10;63.20;100814.44;5075573;28;45379;-62
2022/10/30 07:43:01;;;;;;;;;17.33;15.67;;;;;17.06;63.03;100800.50;5075495;28;45373;-62
2022/10/30 07:45:27;;;;;;;;;20.33;15.33;;;;;17.13;63.34;100815.13;5075999;28;45633;-62
2022/10/30 07:47:53;;;;;;;;;15.67;12.67;;;;;17.13;63.10;100808.94;5075647;28;45365;-65
2022/10/30 07:50:19;;;;;;;;;14.33;14.33;;;;;17.12;63.17;100807.25;5075430;28;45435;-60
2022/10/30 07:52:44;;;;;;;;;20.67;16.00;;;;;17.13;63.21;100804.47;5075676;28;45456;-63
2022/10/30 07:55:09;;;;;;;;;10.67;10.67;;;;;17.13;63.38;100811.59;5075704;28;45716;-63
2022/10/30 07:57:36;;;;;;;;;14.67;14.67;;;;;17.13;63.05;100809.81;5075606;28;45457;-62
2022/10/30 08:00:04;;;;;;;;;19.67;15.33;;;;;17.13;63.51;100809.81;5075400;28;45395;-62
2022/10/30 08:02:29;;;;;;;;;15.33;12.67;;;;;17.14;63.29;100815.97;5074467;28;45470;-64
2022/10/30 08:04:54;;;;;;;;;14.33;11.67;;;;;17.16;63.15;100827.38;5075070;28;45560;-62
2022/10/30 08:07:20;;;;;;;;;15.00;13.33;;;;;17.20;62.71;100824.44;5075117;28;57553;-63
2022/10/30 08:09:46;;;;;;;;;14.67;13.00;;;;;17.18;62.79;100829.00;5074554;28;45438;-65
2022/10/30 08:12:11;;;;;;;;;12.33;11.33;;;;;17.15;62.33;100826.53;5075195;28;45414;-64
2022/10/30 08:14:36;;;;;;;;;14.67;13.33;;;;;17.20;62.67;100843.06;5075524;28;45422;-64
2022/10/30 08:17:03;;;;;;;;;21.00;17.00;;;;;17.21;62.60;100841.25;5074688;28;54220;-64
2022/10/30 08:19:29;;;;;;;;;12.67;12.67;;;;;17.21;62.55;100850.06;5075181;28;45475;-65
2022/10/30 08:21:55;;;;;;;;;14.00;13.67;;;;;17.21;62.29;100860.69;5075570;28;45430;-63
2022/10/30 08:24:21;;;;;;;;;16.67;16.00;;;;;17.27;62.78;100864.78;5075424;28;45390;-63
2022/10/30 08:26:46;;;;;;;;;15.33;15.33;;;;;17.32;62.60;100868.03;5066719;28;46041;-63
2022/10/30 08:29:11;;;;;;;;;16.00;13.67;;;;;17.32;62.39;100868.03;5069186;28;45494;-64
2022/10/30 08:31:37;;;;;;;;;17.00;12.67;;;;;17.33;62.19;100877.75;5075029;28;45752;-63
2022/10/30 08:34:03;;;;;;;;;12.33;12.33;;;;;17.36;62.22;100888.19;5075097;28;45514;-61
2022/10/30 08:36:28;;;;;;;;;14.33;14.33;;;;;17.33;61.85;100877.75;5074859;28;45991;-61
2022/10/30 08:38:53;;;;;;;;;18.67;15.33;;;;;17.33;61.65;100888.38;5074759;28;45522;-61
2022/10/30 08:41:19;;;;;;;;;12.67;12.67;;;;;17.30;62.04;100864.66;5075025;28;45532;-63
2022/10/30 08:43:44;;;;;;;;;13.00;12.00;;;;;17.34;61.99;100860.84;5074954;28;45509;-62
2022/10/30 08:46:09;;;;;;;;;20.33;14.67;;;;;17.36;61.50;100882.03;5074511;28;54295;-62
2022/10/30 08:48:35;;;;;;;;;14.67;13.00;;;;;17.35;61.96;100886.47;5074800;28;45355;-64
2022/10/30 08:51:00;;;;;;;;;14.33;13.33;;;;;17.34;61.89;100890.09;5074822;28;45362;-63
2022/10/30 08:53:26;;;;;;;;;13.67;13.67;;;;;17.36;61.81;100877.56;5056416;28;45374;-65
2022/10/30 08:55:51;;;;;;;;;16.33;14.67;;;;;17.38;62.02;100866.81;5074588;28;45426;-62
2022/10/30 08:58:16;;;;;;;;;15.33;13.67;;;;;17.40;61.61;100873.75;5074589;28;45460;-63
2022/10/30 09:00:42;;;;;;;;;16.00;15.33;;;;;17.41;61.85;100869.31;5074833;28;45408;-61
2022/10/30 09:03:07;;;;;;;;;22.67;16.00;;;;;17.39;61.56;100865.91;5074517;28;49652;-63
2022/10/30 09:05:32;;;;;;;;;14.67;14.67;;;;;17.40;61.89;100876.41;5072830;28;52829;-63
2022/10/30 09:07:59;;;;;;;;;15.00;14.33;;;;;17.43;62.02;100873.56;5074819;28;45500;-62
2022/10/30 09:10:25;;;;;;;;;12.33;12.33;;;;;17.45;62.07;100877.00;5074478;28;45487;-65
2022/10/30 09:12:55;;;;;;;;;14.67;13.67;;;;;17.50;61.80;100882.06;5074441;28;45451;-62
2022/10/30 09:15:20;;;;;;;;;12.00;11.67;;;;;17.54;61.34;100874.75;5074417;28;45418;-61
2022/10/30 09:17:46;;;;;;;;;16.00;15.00;;;;;17.58;61.53;100882.44;5056214;28;45434;-62
2022/10/30 09:20:14;;;;;;;;;14.67;13.67;;;;;17.56;60.96;100886.16;5074472;28;45425;-63
2022/10/30 09:22:40;;;;;;;;;14.00;13.00;;;;;17.57;60.83;100885.19;5077186;28;45615;-63
2022/10/30 09:25:06;;;;;;;;;15.33;12.33;;;;;17.61;61.14;100886.72;5077670;28;45501;-65
2022/10/30 09:27:36;;;;;;;;;14.33;13.33;;;;;17.65;61.05;100896.22;5062139;28;45907;-64
2022/10/30 09:30:02;;;;;;;;;15.67;15.67;;;;;17.71;60.68;100901.19;5077966;28;45469;-62
2022/10/30 09:32:27;;;;;;;;;15.00;12.00;;;;;17.74;60.56;100900.16;5077661;28;45577;-62
2022/10/30 09:34:53;;;;;;;;;12.67;12.67;;;;;17.79;60.12;100903.44;5077275;28;49138;-62
2022/10/30 09:37:18;;;;;;;;;19.33;13.00;;;;;17.79;60.13;100904.28;5077823;28;45430;-63
2022/10/30 09:39:43;;;;;;;;;12.00;11.67;;;;;17.84;60.11;100896.88;5077571;28;45549;-62
2022/10/30 09:42:48;;;;;;;;;13.33;13.00;;;;;17.92;59.80;100900.84;5077246;28;47496;-63
2022/10/30 09:45:28;;;;;;;;;12.00;12.00;;;;;17.98;60.40;100896.03;4959210;28;47555;-65
2022/10/30 09:47:56;;;;;;;;;11.33;10.33;;;;;18.07;60.18;100899.91;4975562;28;45518;-63
2022/10/30 09:50:37;;;;;;;;;12.00;11.00;;;;;18.17;59.50;100910.88;5029623;28;45432;-62
2022/10/30 09:53:24;;;;;;;;;11.67;11.67;;;;;18.28;59.03;100911.03;5077515;28;45497;-62
2022/10/30 09:56:14;;;;;;;;;11.00;10.33;;;;;18.36;58.30;100903.44;5077248;28;46497;-63
2022/10/30 09:59:01;;;;;;;;;11.00;9.67;;;;;18.40;58.48;100904.06;5077198;28;45545;-62
2022/10/30 10:01:53;;;;;;;;;10.00;8.00;;;;;18.47;58.33;100900.09;5077470;28;45331;-63
2022/10/30 10:04:32;;;;;;;;;10.33;10.33;;;;;18.50;57.63;100905.22;5066405;28;45319;-63
2022/10/30 10:07:12;;;;;;;;;10.67;10.67;;;;;18.52;57.18;100904.16;5076906;28;46022;-62
2022/10/30 10:09:39;;;;;;;;;13.33;13.33;;;;;18.61;56.83;100901.88;5077074;28;45416;-62
2022/10/30 10:12:12;;;;;;;;;8.00;8.00;;;;;18.62;56.92;100911.56;5076911;28;45502;-63
2022/10/30 10:14:43;;;;;;;;;9.00;8.67;;;;;18.63;55.86;100911.47;5077321;28;45462;-64
2022/10/30 10:17:17;;;;;;;;;9.00;8.67;;;;;18.67;56.59;100902.34;5076961;28;45410;-65
2022/10/30 10:19:58;;;;;;;;;13.33;12.33;;;;;18.70;56.71;100912.78;5076913;28;45487;-62
2022/10/30 10:22:37;;;;;;;;;14.33;13.67;;;;;18.72;55.86;100907.34;5077329;28;45422;-65
2022/10/30 10:25:08;;;;;;;;;9.00;7.00;;;;;18.73;56.01;100901.94;5076947;28;45427;-64
2022/10/30 10:27:45;;;;;;;;;13.33;12.33;;;;;18.75;56.14;100893.84;5062293;28;45372;-62
2022/10/30 10:30:22;;;;;;;;;8.33;8.33;;;;;18.77;56.31;100895.47;5076805;28;45504;-64
2022/10/30 10:33:24;;;;;;;;;7.33;7.33;;;;;18.81;55.36;100904.16;5076243;28;45410;-61
2022/10/30 10:36:03;;;;;;;;;10.00;10.00;;;;;18.84;55.49;100897.75;5076844;28;45583;-60
2022/10/30 10:38:49;;;;;;;;;8.33;7.67;;;;;18.87;55.54;100890.41;5076813;28;45979;-64
2022/10/30 10:41:20;;;;;;;;;8.33;6.33;;;;;18.89;55.30;100890.31;5076651;28;45472;-63
2022/10/30 10:44:23;;;;;;;;;10.00;8.00;;;;;18.88;55.79;100907.25;5076910;28;45351;-62
2022/10/30 10:47:07;;;;;;;;;10.67;10.33;;;;;18.88;55.42;100920.56;5076514;28;45539;-64
2022/10/30 10:49:41;;;;;;;;;10.33;9.00;;;;;18.87;55.81;100941.03;5075656;28;45419;-65
2022/10/30 10:52:16;;;;;;;;;11.00;10.33;;;;;18.89;55.61;100949.81;5062698;28;45392;-63
2022/10/30 10:54:47;;;;;;;;;9.67;8.00;;;;;18.93;55.43;100953.97;5076552;28;45383;-63
2022/10/30 10:57:27;;;;;;;;;8.00;8.00;;;;;18.91;55.52;100944.34;5076646;28;45406;-62
2022/10/30 11:00:01;;;;;;;;;8.00;8.00;;;;;18.97;55.62;100943.97;5076044;28;46257;-62
2022/10/30 11:02:33;;;;;;;;;11.00;11.00;;;;;19.01;55.94;100937.47;5076188;28;45395;-61
2022/10/30 11:05:17;;;;;;;;;11.33;10.00;;;;;19.05;56.08;100948.78;5076170;28;45465;-62
2022/10/30 11:07:48;;;;;;;;;7.67;7.67;;;;;19.08;55.64;100953.94;5076327;28;45437;-65
2022/10/30 11:10:15;;;;;;;;;11.33;8.33;;;;;19.11;55.43;100962.59;5076098;28;45440;-66
2022/10/30 11:12:41;;;;;;;;;12.67;9.33;;;;;19.13;55.33;100960.69;5057796;28;45503;-63
2022/10/30 11:15:22;;;;;;;;;14.33;13.00;;;;;19.15;55.89;100964.09;5076183;28;45534;-64